Time;durP1;ratioP1;P1;durP2;ratioP2;P2;SDS_P1;SDS_P2;PMS_P1;PMS_P2;Temp;Humidity;BMP_temperature;BMP_pressure;BME280_temperature;BME280_humidity;BME280_pressure;Samples;Min_cycle;Max_cycle;Signal;HPM_P1;HPM_P2
2022/03/01 00:02:54;;;;;;;31.90;20.30;;;;;;;;;;4980738;28;20046;-94
2022/03/01 00:08:35;;;;;;;32.30;20.88;;;;;;;;;;4987712;23;20057;-93
2022/03/01 00:27:54;;;;;;;26.92;17.90;;;;;;;;;;4988795;23;20137;-96
2022/03/01 00:37:25;;;;;;;25.00;16.88;;;;;;;;;;5122998;23;20176;-95
2022/03/01 00:39:55;;;;;;;31.42;17.77;;;;;;;;;;4972406;28;20037;-96
2022/03/01 00:45:44;;;;;;;26.27;16.55;;;;;;;;;;5003566;28;20102;-94
2022/03/01 00:48:16;;;;;;;29.38;17.17;;;;;;;;;;4968998;28;20543;-95
2022/03/01 00:51:01;;;;;;;26.25;17.08;;;;;;;;;;4968966;28;20110;-94
2022/03/01 00:53:30;;;;;;;23.90;15.82;;;;;;;;;;4960951;28;20073;-94
2022/03/01 00:56:11;;;;;;;25.70;15.38;;;;;;;;;;4957383;28;20153;-95
2022/03/01 00:58:37;;;;;;;25.00;17.25;;;;;;;;;;4957495;28;20133;-92
2022/03/01 01:01:06;;;;;;;28.25;16.48;;;;;;;;;;4971186;28;20482;-94
2022/03/01 01:03:37;;;;;;;24.80;17.02;;;;;;;;;;4957171;28;20132;-94
2022/03/01 01:06:05;;;;;;;26.45;16.83;;;;;;;;;;4933220;28;20482;-92
2022/03/01 01:12:24;;;;;;;23.85;16.05;;;;;;;;;;4992600;28;20064;-93
2022/03/01 01:15:16;;;;;;;26.30;16.73;;;;;;;;;;4961485;28;20042;-96
2022/03/01 01:18:16;;;;;;;24.90;16.15;;;;;;;;;;4957524;28;20054;-94
2022/03/01 01:21:01;;;;;;;27.00;17.52;;;;;;;;;;4958802;28;20050;-92
2022/03/01 01:23:30;;;;;;;24.73;16.77;;;;;;;;;;5036705;23;20124;-93
2022/03/01 01:26:23;;;;;;;31.15;18.98;;;;;;;;;;4977577;28;20050;-95
2022/03/01 01:29:46;;;;;;;28.80;17.77;;;2.70;99.90;;;;;;4974898;28;20073;-92
2022/03/01 01:32:16;;;;;;;29.45;17.58;;;;;;;;;;5009250;28;20061;-93
2022/03/01 01:34:42;;;;;;;27.30;16.95;;;;;;;;;;4989263;28;20417;-95
2022/03/01 01:37:11;;;;;;;27.17;17.73;;;;;;;;;;4974547;28;20058;-95
2022/03/01 01:43:23;;;;;;;23.30;16.02;;;;;;;;;;4997842;28;20080;-93
2022/03/01 01:48:39;;;;;;;24.83;16.88;;;;;;;;;;5503011;23;20066;-93
2022/03/01 02:11:16;;;;;;;27.00;18.23;;;;;;;;;;5340643;22;20133;31
2022/03/01 02:21:10;;;;;;;27.67;18.42;;;;;;;;;;5119185;23;20192;-91
2022/03/01 02:23:36;;;;;;;26.20;17.42;;;;;;;;;;4972969;28;20069;-94
2022/03/01 02:36:13;;;;;;;26.25;17.90;;;2.00;99.90;;;;;;5182810;23;20049;-93
2022/03/01 02:55:12;;;;;;;30.63;18.52;;;;;;;;;;5005688;28;20085;-91
2022/03/01 03:30:36;;;;;;;32.63;18.80;;;;;;;;;;4966191;28;20043;-93
2022/03/01 03:33:15;;;;;;;29.90;16.92;;;;;;;;;;4938851;28;20054;-95
2022/03/01 03:35:47;;;;;;;28.58;17.77;;;;;;;;;;4935470;28;20050;-94
2022/03/01 03:38:39;;;;;;;27.40;17.63;;;;;;;;;;4939307;28;21832;-92
2022/03/01 03:41:20;;;;;;;26.27;17.45;;;;;;;;;;4914514;29;20078;-93
2022/03/01 03:53:41;;;;;;;30.35;18.27;;;;;;;;;;5010505;28;20495;-95
2022/03/01 03:56:40;;;;;;;23.27;16.73;;;;;;;;;;4978324;28;20401;-96
2022/03/01 03:59:10;;;;;;;27.02;18.48;;;;;;;;;;4976706;28;20038;-95
2022/03/01 04:01:44;;;;;;;26.40;17.60;;;;;;;;;;4958456;28;20045;-95
2022/03/01 04:15:49;;;;;;;29.40;17.92;;;1.90;99.90;;;;;;4986584;28;20500;-94
2022/03/01 04:18:56;;;;;;;26.48;17.13;;;;;;;;;;4956841;28;20438;-95
2022/03/01 04:21:50;;;;;;;29.45;17.75;;;1.90;99.90;;;;;;4973006;28;20046;-95
2022/03/01 04:24:19;;;;;;;26.08;16.80;;;;;;;;;;4973645;28;20050;-95
2022/03/01 04:26:58;;;;;;;24.98;16.88;;;;;;;;;;4966871;23;20042;-93
2022/03/01 04:47:31;;;;;;;25.80;16.70;;;;;;;;;;5000431;23;20401;31
2022/03/01 04:59:53;;;;;;;24.42;16.83;;;;;;;;;;4947202;28;20462;-92
2022/03/01 05:02:29;;;;;;;28.52;17.90;;;;;;;;;;4940130;28;20063;-94
2022/03/01 08:26:46;;;;;;;;;;;;;;;;;;;;;
2022/03/01 08:46:05;;;;;;;25.73;17.48;;;;;;;;;;4834329;29;20060;-94
2022/03/01 08:48:41;;;;;;;28.35;18.13;;;;;;;;;;4837499;29;20042;-94
2022/03/01 09:07:51;;;;;;;27.77;16.95;;;;;;;;;;4826127;29;20126;-92
2022/03/01 10:50:03;;;;;;;23.40;15.43;;;;;;;;;;4844050;23;20515;-92
2022/03/01 11:21:59;;;;;;;20.60;14.65;;;;;;;;;;5229469;23;20075;-94
2022/03/01 11:59:32;;;;;;;20.08;14.32;;;;;;;;;;4933701;23;20489;-91
2022/03/01 12:02:01;;;;;;;22.80;15.50;;;;;;;;;;4810136;29;20133;-89
2022/03/01 12:04:30;;;;;;;21.15;15.07;;;;;;;;;;4846272;29;20052;-89
2022/03/01 12:06:57;;;;;;;20.30;14.75;;;;;;;;;;4864815;29;20074;-91
2022/03/01 12:09:25;;;;;;;20.75;15.05;;;;;;;;;;4832943;29;20074;-90
2022/03/01 12:12:02;;;;;;;20.42;14.80;;;;;;;;;;4850977;29;20053;-90
2022/03/01 12:15:05;;;;;;;25.00;15.05;;;;;;;;;;4840934;29;20081;-90
2022/03/01 12:17:42;;;;;;;19.10;14.45;;;;;;;;;;4848179;29;20057;-90
2022/03/01 12:20:23;;;;;;;19.50;14.57;;;;;;;;;;4831890;29;20061;-91
2022/03/01 12:23:28;;;;;;;22.10;14.38;;;;;;;;;;4850141;29;20101;-90
2022/03/01 12:25:55;;;;;;;19.55;15.05;;;;;;;;;;4850130;29;20085;-90
2022/03/01 12:28:22;;;;;;;20.67;15.27;;;;;;;;;;4818110;29;20115;-90
2022/03/01 12:31:07;;;;;;;22.90;15.23;;;;;;;;;;4836725;29;20541;-91
2022/03/01 12:34:01;;;;;;;24.15;15.50;;;;;;;;;;4820944;29;20053;-91
2022/03/01 12:36:38;;;;;;;25.63;16.17;;;;;;;;;;4813847;29;20054;-91
2022/03/01 12:39:07;;;;;;;20.85;14.80;;;;;;;;;;4816965;29;20056;-90
2022/03/01 12:41:34;;;;;;;25.20;16.05;;;;;;;;;;4833592;29;20190;-90
2022/03/01 12:44:06;;;;;;;24.30;15.73;;;;;;;;;;4855955;29;20046;-89
2022/03/01 12:46:37;;;;;;;20.85;14.60;;;;;;;;;;4837234;29;20046;-89
2022/03/01 12:49:22;;;;;;;22.60;16.40;;;;;;;;;;4822634;29;20164;-90
2022/03/01 12:52:05;;;;;;;22.60;15.10;;;;;;;;;;4827420;29;20050;-90
2022/03/01 12:54:50;;;;;;;24.85;15.55;;;;;;;;;;4856303;29;20088;-90
2022/03/01 12:57:43;;;;;;;23.23;15.80;;;;;;;;;;4838260;29;20121;-91
2022/03/01 13:00:38;;;;;;;26.55;15.82;;;;;;;;;;4848931;29;20061;-90
2022/03/01 13:03:36;;;;;;;22.15;15.75;;;;;;;;;;4842039;29;20198;-89
2022/03/01 13:06:34;;;;;;;18.98;15.02;;;;;;;;;;4822519;29;20160;-90
2022/03/01 13:09:00;;;;;;;22.35;15.98;;;;;;;;;;4826510;29;20057;-90
2022/03/01 13:11:39;;;;;;;27.35;17.17;;;;;;;;;;4837293;29;20053;-90
2022/03/01 13:14:26;;;;;;;25.42;16.63;;;;;;;;;;4825352;29;20049;-89
2022/03/01 13:16:56;;;;;;;23.08;16.60;;;;;;;;;;4823819;29;20045;-91
2022/03/01 13:19:27;;;;;;;22.48;16.48;;;;;;;;;;4825281;29;20053;-90
2022/03/01 13:22:22;;;;;;;21.40;15.93;;;;;;;;;;4823046;29;20061;-91
2022/03/01 13:24:58;;;;;;;23.63;15.88;;;;;;;;;;4835524;29;20052;-91
2022/03/01 13:27:46;;;;;;;26.33;16.35;;;;;;;;;;4843573;29;20406;-90
2022/03/01 13:30:37;;;;;;;21.60;16.42;;;;;;;;;;4839150;29;20067;-90
2022/03/01 13:33:31;;;;;;;27.73;16.77;;;;;;;;;;4858147;29;20161;-91
2022/03/01 13:36:38;;;;;;;22.50;16.88;;;;;;;;;;4857061;29;20067;-91
2022/03/01 13:39:06;;;;;;;23.55;17.20;;;;;;;;;;4838769;29;20518;-89
2022/03/01 13:41:36;;;;;;;25.75;16.75;;;;;;;;;;4852658;29;20093;-89
2022/03/01 13:44:28;;;;;;;23.30;16.80;;;;;;;;;;4837058;29;20053;-89
2022/03/01 13:46:57;;;;;;;23.27;17.35;;;;;;;;;;4850822;29;20054;-89
2022/03/01 13:49:54;;;;;;;22.65;17.55;;;9.20;99.90;;;;;;4856006;29;20050;-90
2022/03/01 13:53:15;;;;;;;23.92;16.52;;;9.20;99.90;;;;;;4840373;29;20089;-88
2022/03/01 13:55:58;;;;;;;22.83;16.73;;;;;;;;;;4842686;29;20046;-89
2022/03/01 13:58:30;;;;;;;21.58;15.85;;;;;;;;;;4841107;29;20050;-89
2022/03/01 14:01:04;;;;;;;22.63;17.05;;;;;;;;;;4871170;29;20109;-89
2022/03/01 14:03:35;;;;;;;22.67;16.88;;;;;;;;;;4855124;29;20477;-88
2022/03/01 14:06:03;;;;;;;22.85;17.25;;;;;;;;;;4832774;29;20560;-89
2022/03/01 14:08:31;;;;;;;22.75;17.27;;;;;;;;;;4821520;29;20037;-88
2022/03/01 14:11:18;;;;;;;22.63;16.52;;;;;;;;;;4856352;29;20486;-88
2022/03/01 14:13:49;;;;;;;23.95;17.00;;;;;;;;;;4820468;29;20050;-89
2022/03/01 14:16:21;;;;;;;25.38;17.55;;;;;;;;;;4839243;29;20064;-89
2022/03/01 14:19:06;;;;;;;23.10;16.70;;;;;;;;;;4816813;29;20167;-90
2022/03/01 14:21:42;;;;;;;26.15;17.48;;;;;;;;;;4796632;29;20059;-90
2022/03/01 14:24:08;;;;;;;23.83;17.45;;;;;;;;;;4798637;29;20066;-90
2022/03/01 14:26:34;;;;;;;25.42;17.25;;;;;;;;;;4795669;29;20046;-90
2022/03/01 14:29:02;;;;;;;21.75;17.00;;;;;;;;;;4771030;29;20050;-89
2022/03/01 14:31:29;;;;;;;24.52;16.52;;;;;;;;;;4828260;29;20499;-89
2022/03/01 14:33:56;;;;;;;21.85;16.88;;;;;;;;;;4806805;29;20517;-89
2022/03/01 14:36:49;;;;;;;22.55;16.27;;;;;;;;;;4795001;29;20547;-89
2022/03/01 14:39:24;;;;;;;26.33;17.67;;;;;;;;;;4815201;29;20095;-90
2022/03/01 14:42:03;;;;;;;26.02;18.50;;;;;;;;;;4777573;29;20593;-90
2022/03/01 14:45:00;;;;;;;25.35;17.55;;;;;;;;;;4798877;29;20201;-89
2022/03/01 14:51:04;;;;;;;24.55;17.20;;;;;;;;;;4834695;29;20106;-88
2022/03/01 14:53:30;;;;;;;24.92;17.52;;;;;;;;;;4821683;29;20056;-88
2022/03/01 14:55:56;;;;;;;23.58;18.90;;;;;;;;;;4833613;29;20138;-89
2022/03/01 14:58:22;;;;;;;25.30;18.85;;;;;;;;;;4844200;29;20041;-90
2022/03/01 15:00:48;;;;;;;24.73;18.23;;;;;;;;;;4839052;29;20454;-92
2022/03/01 15:03:15;;;;;;;25.40;17.88;;;;;;;;;;4807283;29;20083;-92
2022/03/01 15:05:41;;;;;;;27.08;17.80;;;;;;;;;;4823704;29;20077;-91
2022/03/01 15:08:28;;;;;;;24.05;17.92;;;;;;;;;;4823785;29;20386;-90
2022/03/01 15:11:10;;;;;;;23.90;18.13;;;;;;;;;;4852851;29;20056;-91
2022/03/01 15:13:44;;;;;;;27.25;18.15;;;;;;;;;;4840037;29;20045;-91
2022/03/01 15:16:22;;;;;;;24.10;18.67;;;;;;;;;;4829283;29;20049;-91
2022/03/01 15:21:56;;;;;;;24.67;18.48;;;;;;;;;;4844590;29;20046;-91
2022/03/01 15:24:34;;;;;;;25.20;17.83;;;;;;;;;;4841123;29;20062;-91
2022/03/01 15:27:07;;;;;;;23.20;18.08;;;;;;;;;;4823305;29;20136;-90
2022/03/01 15:29:33;;;;;;;25.77;19.27;;;;;;;;;;4837841;29;20045;-89
2022/03/01 15:32:03;;;;;;;31.17;22.42;;;;;;;;;;4840446;29;20578;-90
2022/03/01 15:34:51;;;;;;;30.42;21.30;;;;;;;;;;4819873;29;20585;-90
2022/03/01 15:37:36;;;;;;;23.92;18.08;;;;;;;;;;4836759;29;20113;-90
2022/03/01 15:40:10;;;;;;;24.95;17.75;;;;;;;;;;4819770;29;20057;-90
2022/03/01 15:42:42;;;;;;;25.77;18.30;;;;;;;;;;4817845;29;20674;-90
2022/03/01 15:45:12;;;;;;;25.02;18.15;;;;;;;;;;4838241;29;20402;-90
2022/03/01 15:47:48;;;;;;;27.65;20.23;;;;;;;;;;4826994;29;20121;-91
2022/03/01 15:50:15;;;;;;;29.10;19.25;;;;;;;;;;4820475;29;20049;-90
2022/03/01 15:52:48;;;;;;;27.55;18.83;;;;;;;;;;4833766;29;20128;-90
2022/03/01 15:55:23;;;;;;;26.70;20.25;;;;;;;;;;4837052;29;20042;-90
2022/03/01 15:58:07;;;;;;;28.90;20.20;;;;;;;;;;4834458;29;20041;-90
2022/03/01 16:00:33;;;;;;;23.63;17.73;;;;;;;;;;4816456;29;20535;-91
2022/03/01 16:03:06;;;;;;;30.70;19.77;;;;;;;;;;4831641;29;20171;-91
2022/03/01 16:08:45;;;;;;;27.60;18.95;;;;;;;;;;4838200;29;20142;-90
2022/03/01 16:11:17;;;;;;;;;;;;;;;;;;4822895;29;20053;-90
2022/03/01 16:16:38;;;;;;;26.80;20.33;;;;;;;;;;4848332;29;20061;-90
2022/03/01 16:19:23;;;;;;;30.13;21.42;;;;;;;;;;4817107;29;20069;-90
2022/03/01 16:21:52;;;;;;;25.52;19.33;;;;;;;;;;4836698;29;20054;-90
2022/03/01 16:24:28;;;;;;;26.80;20.17;;;;;;;;;;4834891;29;20057;-90
2022/03/01 16:27:00;;;;;;;28.73;19.33;;;;;;;;;;4814062;29;20046;-89
2022/03/01 16:29:45;;;;;;;28.55;19.95;;;;;;;;;;4838981;29;20137;-91
2022/03/01 16:32:24;;;;;;;26.58;19.30;;;;;;;;;;4810520;29;20508;-90
2022/03/01 16:34:50;;;;;;;28.05;20.30;;;;;;;;;;4805253;29;20119;-90
2022/03/01 16:37:38;;;;;;;29.40;20.65;;;;;;;;;;4833614;29;20054;-90
2022/03/01 16:40:05;;;;;;;27.85;20.60;;;;;;;;;;4821529;29;20041;-90
2022/03/01 16:42:34;;;;;;;27.15;19.63;;;;;;;;;;4817817;29;20136;-90
2022/03/01 16:45:01;;;;;;;32.10;20.58;;;;;;;;;;4818349;29;20061;-90
2022/03/01 16:47:27;;;;;;;27.55;21.33;;;;;;;;;;4826401;29;20466;-90
2022/03/01 16:49:53;;;;;;;29.05;20.70;;;;;;;;;;4816762;29;20045;-90
2022/03/01 16:52:22;;;;;;;39.65;22.08;;;;;;;;;;4855112;29;20060;-90
2022/03/01 16:54:51;;;;;;;26.92;20.52;;;;;;;;;;4857617;29;20025;-90
2022/03/01 16:57:52;;;;;;;32.92;22.13;;;;;;;;;;4831933;29;20053;-90
2022/03/01 17:00:18;;;;;;;32.80;22.80;;;;;;;;;;4840823;29;20061;-91
2022/03/01 17:03:02;;;;;;;33.20;22.38;;;;;;;;;;4837929;29;20140;-91
2022/03/01 17:05:47;;;;;;;29.03;21.63;;;;;;;;;;4820121;29;20060;-90
2022/03/01 17:08:35;;;;;;;28.92;20.65;;;;;;;;;;4820894;29;20359;-90
2022/03/01 17:11:11;;;;;;;;;;;;;;;;;;;;;
2022/03/01 17:13:49;;;;;;;31.75;22.83;;;;;;;;;;4835422;29;20084;-90
2022/03/01 17:16:52;;;;;;;31.67;22.88;;;;;;;;;;4828676;29;20075;-90
2022/03/01 17:19:56;;;;;;;29.75;22.58;;;;;;;;;;4844664;29;20092;-89
2022/03/01 17:22:22;;;;;;;30.30;23.17;;;;;;;;;;4846105;29;20116;-89
2022/03/01 17:24:52;;;;;;;30.33;23.02;;;;;;;;;;4827940;29;20049;-89
2022/03/01 17:27:27;;;;;;;30.35;23.73;;;;;;;;;;4822034;29;20060;-91
2022/03/01 17:29:53;;;;;;;33.03;22.92;;;;;;;;;;4837827;29;20885;-90
2022/03/01 17:32:19;;;;;;;34.08;24.58;;;;;;;;;;4836690;29;20037;-90
2022/03/01 17:34:48;;;;;;;28.55;22.27;;;;;;;;;;4803857;29;20522;-90
2022/03/01 17:37:15;;;;;;;31.38;22.15;;;;;;;;;;4821693;29;20051;-90
2022/03/01 17:39:42;;;;;;;41.35;23.40;;;;;;;;;;4820125;29;20540;-90
2022/03/01 17:42:14;;;;;;;32.10;22.05;;;;;;;;;;4804070;29;20128;-90
2022/03/01 17:44:40;;;;;;;32.53;23.13;;;;;;;;;;4813664;29;20494;-90
2022/03/01 17:47:07;;;;;;;34.75;23.13;;;;;;;;;;4831937;29;20046;-90
2022/03/01 17:49:36;;;;;;;34.13;23.00;;;;;;;;;;4816258;29;20125;-89
2022/03/01 17:52:03;;;;;;;39.67;25.80;;;;;;;;;;4831479;29;20049;-90
2022/03/01 17:54:40;;;;;;;36.83;24.55;;;;;;;;;;4830297;29;20090;-89
2022/03/01 17:57:07;;;;;;;47.60;30.23;;;;;;;;;;4818784;29;20049;-91
2022/03/01 17:59:35;;;;;;;37.72;25.42;;;;;;;;;;4814986;29;20148;-89
2022/03/01 18:02:02;;;;;;;42.00;26.70;;;;;;;;;;4845529;29;20061;-89
2022/03/01 18:04:28;;;;;;;35.28;24.83;;;;;;;;;;4830071;29;20049;-88
2022/03/01 18:10:17;;;;;;;42.20;28.75;;;;;;;;;;4848191;29;20132;-90
2022/03/01 18:12:43;;;;;;;41.65;27.33;;;;;;;;;;4817246;29;20040;-91
2022/03/01 18:15:15;;;;;;;41.95;25.95;;;;;;;;;;4799376;29;20106;-90
2022/03/01 18:17:41;;;;;;;36.03;25.13;;;;;;;;;;4830138;24;20571;-89
2022/03/01 18:20:08;;;;;;;38.78;25.05;;;;;;;;;;4787743;29;20103;-90
2022/03/01 18:22:35;;;;;;;40.80;25.80;;;;;;;;;;4813352;29;20054;-91
2022/03/01 18:25:01;;;;;;;39.78;24.92;;;;;;;;;;4823113;29;20062;-89
2022/03/01 18:27:27;;;;;;;38.53;25.27;;;;;;;;;;4812308;29;20131;-87
2022/03/01 18:29:53;;;;;;;40.63;25.52;;;;;;;;;;4825764;29;20054;-89
2022/03/01 18:32:32;;;;;;;37.38;25.48;;;;;;;;;;5012540;23;20029;-90
2022/03/01 18:35:36;;;;;;;37.42;25.85;;;;;;;;;;4854701;29;20086;-90
2022/03/01 18:38:03;;;;;;;37.03;26.23;;;;;;;;;;4836424;29;20053;-91
2022/03/01 18:40:40;;;;;;;40.67;26.55;;;;;;;;;;4833509;29;20387;-89
2022/03/01 18:43:10;;;;;;;36.47;26.63;;;;;;;;;;4847202;29;20057;-89
2022/03/01 18:45:43;;;;;;;42.42;25.70;;;;;;;;;;4847153;29;20050;-89
2022/03/01 18:48:10;;;;;;;37.45;27.83;;;;;;;;;;4834973;29;20052;-88
2022/03/01 18:50:54;;;;;;;43.65;28.27;;;;;;;;;;4836137;29;20532;-88
2022/03/01 18:53:33;;;;;;;36.70;27.15;;;;;;;;;;4850509;29;20053;-89
2022/03/01 18:55:59;;;;;;;41.15;27.00;;;;;;;;;;4834971;29;20052;-89
2022/03/01 18:58:25;;;;;;;40.25;28.15;;;;;;;;;;4831739;29;20832;-88
2022/03/01 19:00:52;;;;;;;38.75;27.42;;;;;;;;;;4835108;29;20053;-89
2022/03/01 19:03:34;;;;;;;39.72;26.02;;;;;;;;;;4835395;29;20046;-89
2022/03/01 19:06:00;;;;;;;35.58;26.17;;;;;;;;;;4849344;29;20933;-89
2022/03/01 19:08:39;;;;;;;36.70;25.50;;;;;;;;;;4833574;29;20094;-89
2022/03/01 19:11:08;;;;;;;40.05;27.73;;;;;;;;;;4844844;29;20046;-87
2022/03/01 19:13:34;;;;;;;37.17;24.48;;;;;;;;;;4849840;29;20045;-87
2022/03/01 19:16:00;;;;;;;41.05;26.10;;;;;;;;;;4833306;29;20048;-88
2022/03/01 19:21:50;;;;;;;39.03;26.40;;;;;;;;;;5034987;23;20422;-89
2022/03/01 19:24:23;;;;;;;35.22;25.23;;;;;;;;;;4823165;29;20088;-89
2022/03/01 19:27:04;;;;;;;39.83;26.27;;;;;;;;;;4828723;29;20040;-88
2022/03/01 19:29:40;;;;;;;34.53;24.13;;;;;;;;;;4809872;29;20866;-88
2022/03/01 19:32:06;;;;;;;37.72;24.98;;;;;;;;;;4842120;29;20053;-89
2022/03/01 19:34:36;;;;;;;39.83;25.85;;;;;;;;;;4838423;29;20045;-88
2022/03/01 19:37:02;;;;;;;36.05;25.00;;;;;;;;;;4823230;29;20049;-88
2022/03/01 19:39:28;;;;;;;41.30;26.23;;;;;;;;;;4825805;29;20452;-88
2022/03/01 19:41:57;;;;;;;36.05;25.10;;;;;;;;;;4824818;29;21410;-88
2022/03/01 19:44:24;;;;;;;43.38;25.02;;;;;;;;;;4812813;29;20052;-90
2022/03/01 19:46:57;;;;;;;37.60;25.60;;;;;;;;;;4829198;29;20049;-89
2022/03/01 19:49:23;;;;;;;37.97;26.50;;;;;;;;;;4841835;29;20402;-89
2022/03/01 19:51:49;;;;;;;42.42;25.80;;;;;;;;;;4819290;29;20041;-89
2022/03/01 19:54:15;;;;;;;36.92;25.20;;;;;;;;;;4813923;29;20053;-91
2022/03/01 19:56:51;;;;;;;37.50;26.75;;;;;;;;;;4842341;29;20503;-88
2022/03/01 19:59:17;;;;;;;39.63;25.58;;;;;;;;;;4841106;29;20053;-89
2022/03/01 20:01:43;;;;;;;40.60;26.42;;;;;;;;;;4816114;29;20049;-90
2022/03/01 20:04:09;;;;;;;39.90;26.33;;;;;;;;;;4818501;29;20042;-90
2022/03/01 20:06:35;;;;;;;39.72;26.83;;;;;;;;;;4854508;29;20033;-88
2022/03/01 20:09:01;;;;;;;40.08;26.38;;;;;;;;;;4857268;29;20102;-91
2022/03/01 20:11:27;;;;;;;39.38;26.65;;;;;;;;;;4854813;29;20045;-89
2022/03/01 20:14:04;;;;;;;42.15;27.80;;;;;;;;;;4835399;29;20042;-88
2022/03/01 20:16:30;;;;;;;41.17;28.17;;;;;;;;;;4845317;29;20154;-88
2022/03/01 20:18:57;;;;;;;39.13;27.52;;;;;;;;;;4801449;29;20197;-89
2022/03/01 20:21:34;;;;;;;38.45;26.95;;;;;;;;;;4819386;29;20117;-88
2022/03/01 20:24:00;;;;;;;38.38;28.02;;;;;;;;;;4833238;29;20482;-88
2022/03/01 20:26:26;;;;;;;43.08;28.88;;;;;;;;;;4842871;29;20054;-88
2022/03/01 20:28:59;;;;;;;38.65;27.30;;;;;;;;;;4834979;29;20033;-87
2022/03/01 20:31:26;;;;;;;38.95;25.73;;;;;;;;;;4808993;29;20045;-88
2022/03/01 20:33:52;;;;;;;44.80;27.73;;;;;;;;;;4945767;23;20117;-85
2022/03/01 20:36:18;;;;;;;40.38;26.90;;;;;;;;;;4821122;29;20054;-85
2022/03/01 20:38:44;;;;;;;40.80;27.13;;;;;;;;;;4794866;29;20046;-83
2022/03/01 20:41:11;;;;;;;42.72;27.02;;;;;;;;;;4786835;29;20062;-84
2022/03/01 20:43:37;;;;;;;39.85;26.95;;;;;;;;;;4808575;29;20827;-84
2022/03/01 20:46:06;;;;;;;39.33;25.73;;;;;;;;;;4808334;29;20610;-84
2022/03/01 20:48:33;;;;;;;40.55;25.73;;;;;;;;;;4810541;29;20051;-84
2022/03/01 20:50:59;;;;;;;41.63;26.77;;;;;;;;;;4811638;29;20047;-84
2022/03/01 20:53:32;;;;;;;41.63;26.38;;;;;;;;;;4807086;29;20048;-84
2022/03/01 20:55:58;;;;;;;42.08;25.33;;;;;;;;;;4798382;29;20515;-84
2022/03/01 20:58:25;;;;;;;38.38;26.60;;;;;;;;;;4762817;29;20463;-84
2022/03/01 21:00:51;;;;;;;42.55;26.42;;;;;;;;;;4809505;29;20114;-83
2022/03/01 21:03:17;;;;;;;46.40;27.63;;;;;;;;;;4790811;29;20515;-84
2022/03/01 21:05:44;;;;;;;39.63;26.08;;;;;;;;;;4807695;29;20054;-83
2022/03/01 21:08:10;;;;;;;40.42;26.85;;;;;;;;;;4791996;29;20046;-83
2022/03/01 21:10:38;;;;;;;40.83;27.98;;;;;;;;;;4808767;29;20042;-83
2022/03/01 21:13:08;;;;;;;40.85;25.98;;;;;;;;;;4801598;29;20054;-84
2022/03/01 21:15:34;;;;;;;41.42;27.60;;;;;;;;;;4801288;29;20054;-83
2022/03/01 21:18:01;;;;;;;39.47;26.58;;;;;;;;;;4809427;29;20053;-84
2022/03/01 21:20:28;;;;;;;44.15;28.40;;;;;;;;;;4801481;29;20179;-83
2022/03/01 21:22:58;;;;;;;46.38;27.80;;;;;;;;;;4823438;29;20495;-84
2022/03/01 21:25:24;;;;;;;43.17;27.33;;;;;;;;;;4805820;29;20427;-83
2022/03/01 21:27:50;;;;;;;45.28;27.10;;;;;;;;;;4810776;29;20050;-83
2022/03/01 21:30:17;;;;;;;42.08;27.75;;;;;;;;;;4792353;29;20089;-84
2022/03/01 21:32:45;;;;;;;40.42;27.00;;;;;;;;;;4806827;29;20564;-83
2022/03/01 21:35:11;;;;;;;43.38;28.88;;;;;;;;;;4789719;29;20066;-84
2022/03/01 21:37:38;;;;;;;47.35;29.02;;;;;;;;;;4796883;29;20082;-84
2022/03/01 21:40:05;;;;;;;44.97;27.33;;;;;;;;;;4789451;29;20051;-86
2022/03/01 21:42:31;;;;;;;45.00;28.23;;;;;;;;;;4790605;29;20579;-83
2022/03/01 21:44:58;;;;;;;40.85;28.67;;;;;;;;;;4804980;29;20072;-84
2022/03/01 21:50:00;;;;;;;44.78;28.73;;;;;;;;;;5260885;24;20764;-83
2022/03/01 21:52:27;;;;;;;44.60;28.98;;;;;;;;;;4851709;29;20057;-83
2022/03/01 21:54:53;;;;;;;44.83;27.77;;;;;;;;;;4851257;29;20065;-83
2022/03/01 21:57:19;;;;;;;41.50;27.98;;;;;;;;;;4851174;29;20045;-84
2022/03/01 21:59:45;;;;;;;44.08;29.10;;;;;;;;;;4859385;29;20194;-85
2022/03/01 22:02:11;;;;;;;47.25;27.85;;;;;;;;;;4857121;29;20046;-84
2022/03/01 22:04:37;;;;;;;45.28;28.80;;;;;;;;;;4853989;29;20057;-83
2022/03/01 22:07:04;;;;;;;45.40;28.85;;;;;;;;;;4856980;29;20063;-83
2022/03/01 22:09:33;;;;;;;47.22;29.23;;;;;;;;;;4837085;29;20140;-84
2022/03/01 22:11:59;;;;;;;45.00;28.25;;;;;;;;;;4845030;29;20405;-84
2022/03/01 22:14:25;;;;;;;42.78;29.00;;;;;;;;;;4853265;29;20181;-84
2022/03/01 22:16:51;;;;;;;47.08;30.20;;;;;;;;;;4855927;29;20049;-84
2022/03/01 22:19:17;;;;;;;52.78;30.40;;;;;;;;;;4853233;29;20106;-84
2022/03/01 22:21:43;;;;;;;46.00;29.52;;;;;;;;;;4856429;29;20044;-84
2022/03/01 22:24:10;;;;;;;44.63;27.98;;;;;;;;;;4854213;29;20549;-84
2022/03/01 22:26:36;;;;;;;45.25;28.85;;;;;;;;;;4822943;29;20049;-84
2022/03/01 22:29:02;;;;;;;43.67;29.10;;;;;;;;;;4855744;29;20469;-84
2022/03/01 22:31:28;;;;;;;51.85;29.80;;;;;;;;;;4853460;29;20109;-84
2022/03/01 22:33:57;;;;;;;43.88;28.67;;;;;;;;;;4855277;29;20045;-84
2022/03/01 22:36:23;;;;;;;44.95;28.92;;;;;;;;;;4836424;29;20057;-84
2022/03/01 22:38:58;;;;;;;50.53;28.92;;;;;;;;;;4852459;29;20067;-85
2022/03/01 22:41:24;;;;;;;43.72;28.02;;;;;;;;;;4835653;29;20109;-85
2022/03/01 22:43:50;;;;;;;49.13;30.13;;;;;;;;;;4830225;29;20207;-85
2022/03/01 22:46:17;;;;;;;43.83;28.17;;;;;;;;;;4835026;29;20041;-85
2022/03/01 22:48:43;;;;;;;46.00;31.08;;;;;;;;;;4851528;29;20049;-84
2022/03/01 22:51:14;;;;;;;47.40;29.98;;;;;;;;;;4854187;29;20459;-84
2022/03/01 22:53:40;;;;;;;48.92;29.75;;;;;;;;;;4827722;29;20061;-83
2022/03/01 22:56:07;;;;;;;45.10;29.70;;;;;;;;;;4854855;29;20049;-84
2022/03/01 22:58:33;;;;;;;45.47;29.30;;;;;;;;;;4850981;29;20052;-84
2022/03/01 23:00:59;;;;;;;45.47;29.58;;;;;;;;;;4855120;29;20042;-84
2022/03/01 23:03:26;;;;;;;46.35;30.08;;;;;;;;;;4857235;29;20545;-84
2022/03/01 23:05:52;;;;;;;44.17;29.42;;;;;;;;;;4858838;29;20072;-84
2022/03/01 23:08:18;;;;;;;46.17;30.05;;;;;;;;;;4861308;29;20041;-84
2022/03/01 23:10:44;;;;;;;49.53;30.02;;;;;;;;;;4858718;29;20152;-83
2022/03/01 23:13:11;;;;;;;48.05;30.00;;;;;;;;;;4829802;29;20045;-84
2022/03/01 23:15:37;;;;;;;49.25;30.98;;;;;;;;;;4855503;29;20033;-84
2022/03/01 23:18:03;;;;;;;46.00;30.00;;;;;;;;;;4857577;29;20049;-85
2022/03/01 23:20:30;;;;;;;48.92;30.45;;;;;;;;;;4859127;29;20132;-85
2022/03/01 23:22:56;;;;;;;50.05;29.73;;;;;;;;;;4872934;29;20049;-84
2022/03/01 23:25:22;;;;;;;49.95;30.80;;;;;;;;;;4859849;29;20470;-83
2022/03/01 23:27:48;;;;;;;51.90;31.52;;;;;;;;;;4870820;29;20034;-84
2022/03/01 23:30:14;;;;;;;48.17;31.00;;;;;;;;;;4816722;29;20514;-84
2022/03/01 23:32:41;;;;;;;50.00;32.05;;;;;;;;;;4850338;29;20469;-85
2022/03/01 23:35:07;;;;;;;50.30;31.08;;;;;;;;;;4852379;29;20049;-84
2022/03/01 23:37:35;;;;;;;51.55;32.13;;;;;;;;;;4850900;29;20053;-85
2022/03/01 23:40:01;;;;;;;53.50;31.13;;;;;;;;;;4852728;29;20407;-85
2022/03/01 23:42:27;;;;;;;48.83;31.70;;;;;;;;;;4828075;29;20048;-85
2022/03/01 23:44:53;;;;;;;48.83;31.33;;;;;;;;;;4825481;29;21779;-84
2022/03/01 23:47:19;;;;;;;51.47;32.05;;;;;;;;;;4852567;29;20063;-83
2022/03/01 23:49:45;;;;;;;54.10;32.92;;;;;;;;;;4850055;29;20074;-84
2022/03/01 23:52:11;;;;;;;52.72;33.97;;;;;;;;;;4843344;29;20085;-85
2022/03/01 23:54:37;;;;;;;50.08;32.80;;;;;;;;;;4850969;29;20113;-84
2022/03/01 23:57:04;;;;;;;54.10;32.20;;;;;;;;;;4852751;29;20094;-84
2022/03/01 23:59:30;;;;;;;56.50;33.30;;;;;;;;;;4834030;29;20041;-84
